sensor_id;sensor_type;location;lat;lon;timestamp;P1;durP1;ratioP1;P2;durP2;ratioP2
67051;SDS011;53957;47.222;18.670;2022-08-21T00:00:47;2.65;;;1.95;;
67051;SDS011;53957;47.222;18.670;2022-08-21T00:03:50;2.50;;;2.30;;
67051;SDS011;53957;47.222;18.670;2022-08-21T00:06:53;2.12;;;2.03;;
67051;SDS011;53957;47.222;18.670;2022-08-21T00:09:56;1.95;;;1.85;;
67051;SDS011;53957;47.222;18.670;2022-08-21T00:13:05;5.12;;;2.00;;
67051;SDS011;53957;47.222;18.670;2022-08-21T00:16:09;2.65;;;2.00;;
67051;SDS011;53957;47.222;18.670;2022-08-21T00:19:12;3.85;;;1.85;;
67051;SDS011;53957;47.222;18.670;2022-08-21T00:22:15;1.77;;;1.67;;
67051;SDS011;53957;47.222;18.670;2022-08-21T00:25:19;2.20;;;2.00;;
67051;SDS011;53957;47.222;18.670;2022-08-21T00:28:27;1.92;;;1.83;;
67051;SDS011;53957;47.222;18.670;2022-08-21T00:31:30;2.30;;;2.10;;
67051;SDS011;53957;47.222;18.670;2022-08-21T00:34:34;2.00;;;1.90;;
67051;SDS011;53957;47.222;18.670;2022-08-21T00:37:37;1.95;;;1.85;;
67051;SDS011;53957;47.222;18.670;2022-08-21T00:40:46;2.37;;;2.17;;
67051;SDS011;53957;47.222;18.670;2022-08-21T00:43:51;2.00;;;1.90;;
67051;SDS011;53957;47.222;18.670;2022-08-21T00:46:55;2.17;;;1.98;;
67051;SDS011;53957;47.222;18.670;2022-08-21T00:49:58;1.80;;;1.70;;
67051;SDS011;53957;47.222;18.670;2022-08-21T00:53:01;5.40;;;1.90;;
67051;SDS011;53957;47.222;18.670;2022-08-21T00:56:06;2.05;;;1.85;;
67051;SDS011;53957;47.222;18.670;2022-08-21T00:59:12;2.08;;;1.83;;
67051;SDS011;53957;47.222;18.670;2022-08-21T01:02:16;2.05;;;1.95;;
67051;SDS011;53957;47.222;18.670;2022-08-21T01:05:20;2.00;;;1.83;;
67051;SDS011;53957;47.222;18.670;2022-08-21T01:08:23;2.37;;;1.87;;
67051;SDS011;53957;47.222;18.670;2022-08-21T01:11:27;2.08;;;1.90;;
67051;SDS011;53957;47.222;18.670;2022-08-21T01:14:30;2.12;;;2.03;;
67051;SDS011;53957;47.222;18.670;2022-08-21T01:17:33;2.28;;;2.08;;
67051;SDS011;53957;47.222;18.670;2022-08-21T01:20:38;4.20;;;2.20;;
67051;SDS011;53957;47.222;18.670;2022-08-21T01:23:49;2.00;;;1.90;;
67051;SDS011;53957;47.222;18.670;2022-08-21T01:26:53;2.22;;;2.10;;
67051;SDS011;53957;47.222;18.670;2022-08-21T01:29:58;2.37;;;2.25;;
67051;SDS011;53957;47.222;18.670;2022-08-21T01:33:10;1.98;;;1.87;;
67051;SDS011;53957;47.222;18.670;2022-08-21T01:36:13;6.47;;;2.83;;
67051;SDS011;53957;47.222;18.670;2022-08-21T01:39:15;2.28;;;2.10;;
67051;SDS011;53957;47.222;18.670;2022-08-21T01:42:18;2.58;;;2.08;;
67051;SDS011;53957;47.222;18.670;2022-08-21T01:45:21;2.50;;;2.30;;
67051;SDS011;53957;47.222;18.670;2022-08-21T01:48:24;2.47;;;2.30;;
67051;SDS011;53957;47.222;18.670;2022-08-21T01:51:27;2.70;;;2.50;;
67051;SDS011;53957;47.222;18.670;2022-08-21T01:54:30;3.28;;;3.08;;
67051;SDS011;53957;47.222;18.670;2022-08-21T01:57:33;2.90;;;2.70;;
67051;SDS011;53957;47.222;18.670;2022-08-21T02:00:37;3.40;;;3.10;;
67051;SDS011;53957;47.222;18.670;2022-08-21T02:03:40;3.92;;;2.85;;
67051;SDS011;53957;47.222;18.670;2022-08-21T02:06:43;3.53;;;2.72;;
67051;SDS011;53957;47.222;18.670;2022-08-21T02:09:46;5.15;;;3.15;;
67051;SDS011;53957;47.222;18.670;2022-08-21T02:12:49;4.00;;;3.17;;
67051;SDS011;53957;47.222;18.670;2022-08-21T02:15:52;2.95;;;2.75;;
67051;SDS011;53957;47.222;18.670;2022-08-21T02:18:55;4.47;;;3.12;;
67051;SDS011;53957;47.222;18.670;2022-08-21T02:21:57;3.78;;;2.87;;
67051;SDS011;53957;47.222;18.670;2022-08-21T02:25:01;3.42;;;3.12;;
67051;SDS011;53957;47.222;18.670;2022-08-21T02:28:05;6.10;;;3.20;;
67051;SDS011;53957;47.222;18.670;2022-08-21T02:31:10;2.95;;;2.72;;
67051;SDS011;53957;47.222;18.670;2022-08-21T02:34:13;3.60;;;3.22;;
67051;SDS011;53957;47.222;18.670;2022-08-21T02:37:16;3.72;;;3.42;;
67051;SDS011;53957;47.222;18.670;2022-08-21T02:40:20;4.05;;;3.45;;
67051;SDS011;53957;47.222;18.670;2022-08-21T02:43:26;6.35;;;3.03;;
67051;SDS011;53957;47.222;18.670;2022-08-21T02:46:30;3.45;;;3.10;;
67051;SDS011;53957;47.222;18.670;2022-08-21T02:49:34;3.37;;;3.00;;
67051;SDS011;53957;47.222;18.670;2022-08-21T02:52:36;4.18;;;3.72;;
67051;SDS011;53957;47.222;18.670;2022-08-21T02:55:39;3.20;;;2.70;;
67051;SDS011;53957;47.222;18.670;2022-08-21T02:58:45;3.62;;;2.72;;
67051;SDS011;53957;47.222;18.670;2022-08-21T03:01:50;5.45;;;3.42;;
67051;SDS011;53957;47.222;18.670;2022-08-21T03:04:52;5.78;;;3.37;;
67051;SDS011;53957;47.222;18.670;2022-08-21T03:07:55;3.60;;;3.30;;
67051;SDS011;53957;47.222;18.670;2022-08-21T03:10:58;3.30;;;3.00;;
67051;SDS011;53957;47.222;18.670;2022-08-21T03:14:03;4.37;;;3.20;;
67051;SDS011;53957;47.222;18.670;2022-08-21T03:17:07;4.53;;;3.40;;
67051;SDS011;53957;47.222;18.670;2022-08-21T03:20:10;3.87;;;3.08;;
67051;SDS011;53957;47.222;18.670;2022-08-21T03:23:15;5.90;;;3.50;;
67051;SDS011;53957;47.222;18.670;2022-08-21T03:26:21;3.67;;;3.33;;
67051;SDS011;53957;47.222;18.670;2022-08-21T03:29:24;3.58;;;3.28;;
67051;SDS011;53957;47.222;18.670;2022-08-21T03:32:28;5.05;;;3.53;;
67051;SDS011;53957;47.222;18.670;2022-08-21T03:35:31;4.55;;;3.33;;
67051;SDS011;53957;47.222;18.670;2022-08-21T03:38:34;4.03;;;3.50;;
67051;SDS011;53957;47.222;18.670;2022-08-21T03:41:38;5.45;;;3.40;;
67051;SDS011;53957;47.222;18.670;2022-08-21T03:44:41;4.03;;;3.28;;
67051;SDS011;53957;47.222;18.670;2022-08-21T03:51:14;5.22;;;3.65;;
67051;SDS011;53957;47.222;18.670;2022-08-21T03:54:17;5.22;;;3.53;;
67051;SDS011;53957;47.222;18.670;2022-08-21T03:57:21;4.70;;;4.03;;
67051;SDS011;53957;47.222;18.670;2022-08-21T04:00:24;5.05;;;3.97;;
67051;SDS011;53957;47.222;18.670;2022-08-21T04:03:28;4.47;;;3.58;;
67051;SDS011;53957;47.222;18.670;2022-08-21T04:06:32;5.22;;;4.05;;
67051;SDS011;53957;47.222;18.670;2022-08-21T04:09:39;7.37;;;3.95;;
67051;SDS011;53957;47.222;18.670;2022-08-21T04:12:42;6.90;;;4.32;;
67051;SDS011;53957;47.222;18.670;2022-08-21T04:15:45;6.45;;;4.62;;
67051;SDS011;53957;47.222;18.670;2022-08-21T04:18:47;6.53;;;4.47;;
67051;SDS011;53957;47.222;18.670;2022-08-21T04:21:50;6.50;;;4.20;;
67051;SDS011;53957;47.222;18.670;2022-08-21T04:24:53;5.40;;;4.07;;
67051;SDS011;53957;47.222;18.670;2022-08-21T04:27:57;4.95;;;4.22;;
67051;SDS011;53957;47.222;18.670;2022-08-21T04:31:00;5.47;;;4.20;;
67051;SDS011;53957;47.222;18.670;2022-08-21T04:34:04;4.60;;;4.10;;
67051;SDS011;53957;47.222;18.670;2022-08-21T04:37:07;3.97;;;3.67;;
67051;SDS011;53957;47.222;18.670;2022-08-21T04:40:11;4.30;;;3.37;;
67051;SDS011;53957;47.222;18.670;2022-08-21T04:43:15;3.87;;;3.58;;
67051;SDS011;53957;47.222;18.670;2022-08-21T04:46:18;3.62;;;3.33;;
67051;SDS011;53957;47.222;18.670;2022-08-21T04:49:21;4.53;;;3.08;;
67051;SDS011;53957;47.222;18.670;2022-08-21T04:52:24;7.20;;;3.60;;
67051;SDS011;53957;47.222;18.670;2022-08-21T04:55:27;3.60;;;3.30;;
67051;SDS011;53957;47.222;18.670;2022-08-21T04:58:31;4.53;;;3.37;;
67051;SDS011;53957;47.222;18.670;2022-08-21T05:01:35;2.70;;;2.50;;
67051;SDS011;53957;47.222;18.670;2022-08-21T05:04:45;3.87;;;3.25;;
67051;SDS011;53957;47.222;18.670;2022-08-21T05:07:51;3.12;;;2.83;;
67051;SDS011;53957;47.222;18.670;2022-08-21T05:10:56;4.05;;;2.78;;
67051;SDS011;53957;47.222;18.670;2022-08-21T05:14:02;3.30;;;3.00;;
67051;SDS011;53957;47.222;18.670;2022-08-21T05:17:08;2.42;;;2.33;;
67051;SDS011;53957;47.222;18.670;2022-08-21T05:20:12;2.80;;;2.60;;
67051;SDS011;53957;47.222;18.670;2022-08-21T05:23:16;2.70;;;2.50;;
67051;SDS011;53957;47.222;18.670;2022-08-21T05:26:19;2.60;;;2.40;;
67051;SDS011;53957;47.222;18.670;2022-08-21T05:29:22;2.35;;;2.15;;
67051;SDS011;53957;47.222;18.670;2022-08-21T05:32:25;2.87;;;2.67;;
67051;SDS011;53957;47.222;18.670;2022-08-21T05:35:30;2.90;;;2.70;;
67051;SDS011;53957;47.222;18.670;2022-08-21T05:38:34;2.35;;;2.00;;
67051;SDS011;53957;47.222;18.670;2022-08-21T05:41:37;2.92;;;2.53;;
67051;SDS011;53957;47.222;18.670;2022-08-21T05:44:40;2.53;;;2.40;;
67051;SDS011;53957;47.222;18.670;2022-08-21T05:47:46;2.72;;;2.53;;
67051;SDS011;53957;47.222;18.670;2022-08-21T05:50:50;2.50;;;2.40;;
67051;SDS011;53957;47.222;18.670;2022-08-21T05:53:54;2.67;;;2.37;;
67051;SDS011;53957;47.222;18.670;2022-08-21T05:56:57;2.67;;;2.37;;
67051;SDS011;53957;47.222;18.670;2022-08-21T06:00:00;2.33;;;2.22;;
67051;SDS011;53957;47.222;18.670;2022-08-21T06:03:04;2.55;;;2.30;;
67051;SDS011;53957;47.222;18.670;2022-08-21T06:06:13;2.50;;;2.30;;
67051;SDS011;53957;47.222;18.670;2022-08-21T06:09:16;2.65;;;2.45;;
67051;SDS011;53957;47.222;18.670;2022-08-21T06:12:19;2.10;;;1.92;;
67051;SDS011;53957;47.222;18.670;2022-08-21T06:15:22;2.33;;;2.12;;
67051;SDS011;53957;47.222;18.670;2022-08-21T06:18:25;2.72;;;2.33;;
67051;SDS011;53957;47.222;18.670;2022-08-21T06:21:28;2.35;;;2.15;;
67051;SDS011;53957;47.222;18.670;2022-08-21T06:24:31;3.47;;;2.10;;
67051;SDS011;53957;47.222;18.670;2022-08-21T06:27:34;2.30;;;2.12;;
67051;SDS011;53957;47.222;18.670;2022-08-21T06:30:38;3.25;;;2.47;;
67051;SDS011;53957;47.222;18.670;2022-08-21T06:33:42;2.80;;;2.60;;
67051;SDS011;53957;47.222;18.670;2022-08-21T06:36:45;3.50;;;2.40;;
67051;SDS011;53957;47.222;18.670;2022-08-21T06:39:48;4.93;;;2.50;;
67051;SDS011;53957;47.222;18.670;2022-08-21T06:42:51;1.92;;;1.83;;
67051;SDS011;53957;47.222;18.670;2022-08-21T06:45:54;2.47;;;2.28;;
67051;SDS011;53957;47.222;18.670;2022-08-21T06:48:57;2.62;;;2.42;;
67051;SDS011;53957;47.222;18.670;2022-08-21T06:52:01;2.17;;;2.08;;
67051;SDS011;53957;47.222;18.670;2022-08-21T06:55:06;2.67;;;2.47;;
67051;SDS011;53957;47.222;18.670;2022-08-21T06:58:10;2.80;;;2.40;;
67051;SDS011;53957;47.222;18.670;2022-08-21T07:01:14;2.40;;;2.20;;
67051;SDS011;53957;47.222;18.670;2022-08-21T07:04:16;3.70;;;2.35;;
67051;SDS011;53957;47.222;18.670;2022-08-21T07:07:20;2.58;;;2.12;;
67051;SDS011;53957;47.222;18.670;2022-08-21T07:10:23;3.17;;;2.30;;
67051;SDS011;53957;47.222;18.670;2022-08-21T07:13:27;3.75;;;1.90;;
67051;SDS011;53957;47.222;18.670;2022-08-21T07:16:31;2.60;;;2.40;;
67051;SDS011;53957;47.222;18.670;2022-08-21T07:19:34;3.90;;;2.53;;
67051;SDS011;53957;47.222;18.670;2022-08-21T07:22:37;2.62;;;2.30;;
67051;SDS011;53957;47.222;18.670;2022-08-21T07:25:40;4.93;;;2.10;;
67051;SDS011;53957;47.222;18.670;2022-08-21T07:28:43;2.65;;;2.42;;
67051;SDS011;53957;47.222;18.670;2022-08-21T07:31:46;2.78;;;2.08;;
67051;SDS011;53957;47.222;18.670;2022-08-21T07:34:49;2.50;;;2.30;;
67051;SDS011;53957;47.222;18.670;2022-08-21T07:37:52;4.03;;;2.25;;
67051;SDS011;53957;47.222;18.670;2022-08-21T07:40:55;3.65;;;2.03;;
67051;SDS011;53957;47.222;18.670;2022-08-21T07:44:01;3.28;;;2.67;;
67051;SDS011;53957;47.222;18.670;2022-08-21T07:47:07;2.70;;;2.50;;
67051;SDS011;53957;47.222;18.670;2022-08-21T07:50:11;4.53;;;2.55;;
67051;SDS011;53957;47.222;18.670;2022-08-21T07:53:15;2.25;;;2.05;;
67051;SDS011;53957;47.222;18.670;2022-08-21T07:56:19;2.40;;;2.20;;
67051;SDS011;53957;47.222;18.670;2022-08-21T07:59:22;2.58;;;2.37;;
67051;SDS011;53957;47.222;18.670;2022-08-21T08:02:26;2.28;;;2.10;;
67051;SDS011;53957;47.222;18.670;2022-08-21T08:05:31;2.40;;;2.22;;
67051;SDS011;53957;47.222;18.670;2022-08-21T08:08:35;4.40;;;2.70;;
67051;SDS011;53957;47.222;18.670;2022-08-21T08:11:57;2.85;;;2.30;;
67051;SDS011;53957;47.222;18.670;2022-08-21T08:15:00;2.28;;;2.15;;
67051;SDS011;53957;47.222;18.670;2022-08-21T08:18:05;2.30;;;2.10;;
67051;SDS011;53957;47.222;18.670;2022-08-21T08:21:08;2.10;;;1.90;;
67051;SDS011;53957;47.222;18.670;2022-08-21T08:24:12;2.45;;;2.25;;
67051;SDS011;53957;47.222;18.670;2022-08-21T08:27:20;2.05;;;1.95;;
67051;SDS011;53957;47.222;18.670;2022-08-21T08:30:23;3.92;;;2.03;;
67051;SDS011;53957;47.222;18.670;2022-08-21T08:33:26;2.97;;;1.95;;
67051;SDS011;53957;47.222;18.670;2022-08-21T08:36:34;2.83;;;2.12;;
67051;SDS011;53957;47.222;18.670;2022-08-21T08:39:37;2.58;;;2.37;;
67051;SDS011;53957;47.222;18.670;2022-08-21T08:42:41;2.58;;;2.37;;
67051;SDS011;53957;47.222;18.670;2022-08-21T08:45:46;2.62;;;2.42;;
67051;SDS011;53957;47.222;18.670;2022-08-21T08:48:53;2.60;;;2.40;;
67051;SDS011;53957;47.222;18.670;2022-08-21T08:55:44;2.75;;;2.37;;
67051;SDS011;53957;47.222;18.670;2022-08-21T08:58:46;3.65;;;2.08;;
67051;SDS011;53957;47.222;18.670;2022-08-21T09:01:50;2.42;;;2.22;;
67051;SDS011;53957;47.222;18.670;2022-08-21T09:04:53;5.82;;;2.12;;
67051;SDS011;53957;47.222;18.670;2022-08-21T09:26:17;2.22;;;2.03;;
67051;SDS011;53957;47.222;18.670;2022-08-21T09:29:27;2.12;;;2.03;;
67051;SDS011;53957;47.222;18.670;2022-08-21T09:32:34;4.68;;;1.85;;
67051;SDS011;53957;47.222;18.670;2022-08-21T09:35:49;1.98;;;1.85;;
67051;SDS011;53957;47.222;18.670;2022-08-21T09:38:54;2.08;;;1.90;;
67051;SDS011;53957;47.222;18.670;2022-08-21T09:42:00;2.33;;;1.83;;
67051;SDS011;53957;47.222;18.670;2022-08-21T09:51:23;1.80;;;1.70;;
67051;SDS011;53957;47.222;18.670;2022-08-21T09:54:34;2.33;;;1.90;;
67051;SDS011;53957;47.222;18.670;2022-08-21T09:57:43;2.00;;;1.90;;
67051;SDS011;53957;47.222;18.670;2022-08-21T10:00:56;2.08;;;1.98;;
67051;SDS011;53957;47.222;18.670;2022-08-21T10:04:04;1.85;;;1.75;;
67051;SDS011;53957;47.222;18.670;2022-08-21T10:07:13;3.37;;;1.92;;
67051;SDS011;53957;47.222;18.670;2022-08-21T10:10:18;2.20;;;2.10;;
67051;SDS011;53957;47.222;18.670;2022-08-21T10:13:29;1.95;;;1.75;;
67051;SDS011;53957;47.222;18.670;2022-08-21T10:16:44;2.47;;;2.28;;
67051;SDS011;53957;47.222;18.670;2022-08-21T10:19:51;1.80;;;1.70;;
67051;SDS011;53957;47.222;18.670;2022-08-21T10:26:52;2.35;;;2.15;;
67051;SDS011;53957;47.222;18.670;2022-08-21T10:30:15;1.70;;;1.60;;
67051;SDS011;53957;47.222;18.670;2022-08-21T10:56:44;1.98;;;1.50;;
67051;SDS011;53957;47.222;18.670;2022-08-21T10:59:53;4.70;;;1.75;;
67051;SDS011;53957;47.222;18.670;2022-08-21T11:03:11;1.98;;;1.77;;
67051;SDS011;53957;47.222;18.670;2022-08-21T11:06:24;1.65;;;1.55;;
67051;SDS011;53957;47.222;18.670;2022-08-21T11:09:29;2.55;;;1.90;;
67051;SDS011;53957;47.222;18.670;2022-08-21T11:12:44;2.00;;;1.80;;
67051;SDS011;53957;47.222;18.670;2022-08-21T11:16:10;1.87;;;1.77;;
67051;SDS011;53957;47.222;18.670;2022-08-21T11:20:04;1.48;;;1.42;;
67051;SDS011;53957;47.222;18.670;2022-08-21T11:23:37;1.60;;;1.50;;
67051;SDS011;53957;47.222;18.670;2022-08-21T11:27:02;1.98;;;1.87;;
67051;SDS011;53957;47.222;18.670;2022-08-21T11:30:09;2.12;;;1.92;;
67051;SDS011;53957;47.222;18.670;2022-08-21T11:36:29;1.62;;;1.50;;
67051;SDS011;53957;47.222;18.670;2022-08-21T11:53:38;1.50;;;1.40;;
67051;SDS011;53957;47.222;18.670;2022-08-21T11:57:00;1.42;;;1.42;;
67051;SDS011;53957;47.222;18.670;2022-08-21T12:00:29;1.65;;;1.55;;
67051;SDS011;53957;47.222;18.670;2022-08-21T12:03:37;1.80;;;1.60;;
67051;SDS011;53957;47.222;18.670;2022-08-21T12:06:47;1.83;;;1.60;;
67051;SDS011;53957;47.222;18.670;2022-08-21T12:09:53;1.58;;;1.48;;
67051;SDS011;53957;47.222;18.670;2022-08-21T12:13:05;1.50;;;1.42;;
67051;SDS011;53957;47.222;18.670;2022-08-21T12:16:43;1.50;;;1.40;;
67051;SDS011;53957;47.222;18.670;2022-08-21T12:19:58;2.37;;;1.35;;
67051;SDS011;53957;47.222;18.670;2022-08-21T12:29:37;1.50;;;1.40;;
67051;SDS011;53957;47.222;18.670;2022-08-21T12:35:43;2.53;;;1.50;;
67051;SDS011;53957;47.222;18.670;2022-08-21T12:38:49;1.98;;;1.62;;
67051;SDS011;53957;47.222;18.670;2022-08-21T12:45:17;5.20;;;1.40;;
67051;SDS011;53957;47.222;18.670;2022-08-21T12:48:26;1.65;;;1.55;;
67051;SDS011;53957;47.222;18.670;2022-08-21T12:51:54;1.40;;;1.30;;
67051;SDS011;53957;47.222;18.670;2022-08-21T12:54:59;3.85;;;1.45;;
67051;SDS011;53957;47.222;18.670;2022-08-21T12:58:04;1.60;;;1.50;;
67051;SDS011;53957;47.222;18.670;2022-08-21T13:01:12;1.40;;;1.40;;
67051;SDS011;53957;47.222;18.670;2022-08-21T13:07:36;1.75;;;1.65;;
67051;SDS011;53957;47.222;18.670;2022-08-21T13:10:40;1.35;;;1.30;;
67051;SDS011;53957;47.222;18.670;2022-08-21T13:13:47;1.80;;;1.35;;
67051;SDS011;53957;47.222;18.670;2022-08-21T13:16:54;1.67;;;1.58;;
67051;SDS011;53957;47.222;18.670;2022-08-21T13:20:02;1.83;;;1.73;;
67051;SDS011;53957;47.222;18.670;2022-08-21T13:26:41;3.80;;;1.58;;
67051;SDS011;53957;47.222;18.670;2022-08-21T13:29:44;2.25;;;1.83;;
67051;SDS011;53957;47.222;18.670;2022-08-21T13:32:57;1.95;;;1.60;;
67051;SDS011;53957;47.222;18.670;2022-08-21T13:36:04;2.35;;;1.30;;
67051;SDS011;53957;47.222;18.670;2022-08-21T13:39:14;1.48;;;1.37;;
67051;SDS011;53957;47.222;18.670;2022-08-21T13:42:20;1.55;;;1.45;;
67051;SDS011;53957;47.222;18.670;2022-08-21T13:45:25;1.62;;;1.50;;
67051;SDS011;53957;47.222;18.670;2022-08-21T13:48:35;1.90;;;1.50;;
67051;SDS011;53957;47.222;18.670;2022-08-21T13:51:39;1.42;;;1.40;;
67051;SDS011;53957;47.222;18.670;2022-08-21T13:54:43;3.35;;;1.42;;
67051;SDS011;53957;47.222;18.670;2022-08-21T13:57:58;1.58;;;1.48;;
67051;SDS011;53957;47.222;18.670;2022-08-21T14:01:03;6.70;;;1.50;;
67051;SDS011;53957;47.222;18.670;2022-08-21T14:04:22;1.40;;;1.30;;
67051;SDS011;53957;47.222;18.670;2022-08-21T14:07:35;1.70;;;1.60;;
67051;SDS011;53957;47.222;18.670;2022-08-21T14:10:43;1.00;;;1.00;;
67051;SDS011;53957;47.222;18.670;2022-08-21T14:14:02;3.50;;;1.50;;
67051;SDS011;53957;47.222;18.670;2022-08-21T14:17:12;1.05;;;1.05;;
67051;SDS011;53957;47.222;18.670;2022-08-21T14:20:35;0.95;;;0.95;;
67051;SDS011;53957;47.222;18.670;2022-08-21T14:23:39;2.55;;;0.90;;
67051;SDS011;53957;47.222;18.670;2022-08-21T14:26:45;1.95;;;1.85;;
67051;SDS011;53957;47.222;18.670;2022-08-21T14:30:10;0.90;;;0.90;;
67051;SDS011;53957;47.222;18.670;2022-08-21T14:33:25;0.93;;;0.93;;
67051;SDS011;53957;47.222;18.670;2022-08-21T14:36:30;1.10;;;1.10;;
67051;SDS011;53957;47.222;18.670;2022-08-21T14:39:33;0.90;;;0.90;;
67051;SDS011;53957;47.222;18.670;2022-08-21T14:42:36;0.90;;;0.90;;
67051;SDS011;53957;47.222;18.670;2022-08-21T14:45:40;0.90;;;0.90;;
67051;SDS011;53957;47.222;18.670;2022-08-21T14:48:44;1.33;;;0.98;;
67051;SDS011;53957;47.222;18.670;2022-08-21T14:51:46;1.15;;;1.00;;
67051;SDS011;53957;47.222;18.670;2022-08-21T14:57:58;1.00;;;0.90;;
67051;SDS011;53957;47.222;18.670;2022-08-21T15:01:03;1.10;;;1.10;;
67051;SDS011;53957;47.222;18.670;2022-08-21T15:04:08;1.10;;;1.00;;
67051;SDS011;53957;47.222;18.670;2022-08-21T15:07:11;1.40;;;1.30;;
67051;SDS011;53957;47.222;18.670;2022-08-21T15:10:14;1.52;;;1.30;;
67051;SDS011;53957;47.222;18.670;2022-08-21T15:13:17;1.20;;;1.20;;
67051;SDS011;53957;47.222;18.670;2022-08-21T15:16:20;1.73;;;1.40;;
67051;SDS011;53957;47.222;18.670;2022-08-21T15:19:24;1.50;;;1.33;;
67051;SDS011;53957;47.222;18.670;2022-08-21T15:22:27;3.17;;;1.50;;
67051;SDS011;53957;47.222;18.670;2022-08-21T15:25:30;2.35;;;1.62;;
67051;SDS011;53957;47.222;18.670;2022-08-21T15:28:33;1.33;;;1.33;;
67051;SDS011;53957;47.222;18.670;2022-08-21T15:31:37;3.08;;;1.60;;
67051;SDS011;53957;47.222;18.670;2022-08-21T15:34:53;1.48;;;1.42;;
67051;SDS011;53957;47.222;18.670;2022-08-21T15:37:57;1.65;;;1.50;;
67051;SDS011;53957;47.222;18.670;2022-08-21T15:41:01;1.35;;;1.25;;
67051;SDS011;53957;47.222;18.670;2022-08-21T15:44:06;2.10;;;1.55;;
67051;SDS011;53957;47.222;18.670;2022-08-21T15:47:19;2.97;;;1.60;;
67051;SDS011;53957;47.222;18.670;2022-08-21T15:50:25;1.42;;;1.33;;
67051;SDS011;53957;47.222;18.670;2022-08-21T15:53:28;1.92;;;1.83;;
67051;SDS011;53957;47.222;18.670;2022-08-21T15:56:37;1.52;;;1.50;;
67051;SDS011;53957;47.222;18.670;2022-08-21T15:59:44;1.70;;;1.60;;
67051;SDS011;53957;47.222;18.670;2022-08-21T16:02:51;1.70;;;1.60;;
67051;SDS011;53957;47.222;18.670;2022-08-21T16:05:57;2.22;;;1.70;;
67051;SDS011;53957;47.222;18.670;2022-08-21T16:09:00;2.17;;;1.50;;
67051;SDS011;53957;47.222;18.670;2022-08-21T16:12:04;1.80;;;1.70;;
67051;SDS011;53957;47.222;18.670;2022-08-21T16:15:08;1.50;;;1.40;;
67051;SDS011;53957;47.222;18.670;2022-08-21T16:18:22;2.30;;;1.90;;
67051;SDS011;53957;47.222;18.670;2022-08-21T16:21:25;2.20;;;1.83;;
67051;SDS011;53957;47.222;18.670;2022-08-21T16:24:28;2.00;;;1.60;;
67051;SDS011;53957;47.222;18.670;2022-08-21T16:27:31;1.90;;;1.80;;
67051;SDS011;53957;47.222;18.670;2022-08-21T16:30:39;1.73;;;1.63;;
67051;SDS011;53957;47.222;18.670;2022-08-21T16:33:49;3.12;;;1.65;;
67051;SDS011;53957;47.222;18.670;2022-08-21T16:36:58;1.60;;;1.50;;
67051;SDS011;53957;47.222;18.670;2022-08-21T16:40:02;2.67;;;1.50;;
67051;SDS011;53957;47.222;18.670;2022-08-21T16:43:05;1.77;;;1.67;;
67051;SDS011;53957;47.222;18.670;2022-08-21T16:46:09;1.70;;;1.60;;
67051;SDS011;53957;47.222;18.670;2022-08-21T16:49:14;1.77;;;1.67;;
67051;SDS011;53957;47.222;18.670;2022-08-21T16:52:17;2.78;;;1.73;;
67051;SDS011;53957;47.222;18.670;2022-08-21T16:55:21;2.25;;;1.80;;
67051;SDS011;53957;47.222;18.670;2022-08-21T16:58:34;1.92;;;1.70;;
67051;SDS011;53957;47.222;18.670;2022-08-21T17:01:39;3.95;;;1.52;;
67051;SDS011;53957;47.222;18.670;2022-08-21T17:04:42;1.30;;;1.30;;
67051;SDS011;53957;47.222;18.670;2022-08-21T17:07:45;4.50;;;1.62;;
67051;SDS011;53957;47.222;18.670;2022-08-21T17:10:48;1.35;;;1.25;;
67051;SDS011;53957;47.222;18.670;2022-08-21T17:13:52;1.10;;;1.10;;
67051;SDS011;53957;47.222;18.670;2022-08-21T17:16:55;1.15;;;1.08;;
67051;SDS011;53957;47.222;18.670;2022-08-21T17:19:58;2.08;;;1.10;;
67051;SDS011;53957;47.222;18.670;2022-08-21T17:23:01;1.10;;;1.10;;
67051;SDS011;53957;47.222;18.670;2022-08-21T17:26:04;1.00;;;1.00;;
67051;SDS011;53957;47.222;18.670;2022-08-21T17:29:13;1.30;;;1.20;;
67051;SDS011;53957;47.222;18.670;2022-08-21T17:32:17;2.12;;;0.80;;
67051;SDS011;53957;47.222;18.670;2022-08-21T17:35:21;1.35;;;0.90;;
67051;SDS011;53957;47.222;18.670;2022-08-21T17:38:24;0.73;;;0.73;;
67051;SDS011;53957;47.222;18.670;2022-08-21T17:41:29;1.17;;;0.80;;
67051;SDS011;53957;47.222;18.670;2022-08-21T17:44:33;2.15;;;0.80;;
67051;SDS011;53957;47.222;18.670;2022-08-21T17:47:38;2.28;;;0.82;;
67051;SDS011;53957;47.222;18.670;2022-08-21T17:50:41;0.70;;;0.70;;
67051;SDS011;53957;47.222;18.670;2022-08-21T17:53:44;2.05;;;0.80;;
67051;SDS011;53957;47.222;18.670;2022-08-21T17:56:48;0.73;;;0.65;;
67051;SDS011;53957;47.222;18.670;2022-08-21T17:59:51;0.98;;;0.77;;
67051;SDS011;53957;47.222;18.670;2022-08-21T18:03:02;0.80;;;0.80;;
67051;SDS011;53957;47.222;18.670;2022-08-21T18:06:09;0.70;;;0.70;;
67051;SDS011;53957;47.222;18.670;2022-08-21T18:09:18;0.90;;;0.90;;
67051;SDS011;53957;47.222;18.670;2022-08-21T18:12:22;0.70;;;0.70;;
67051;SDS011;53957;47.222;18.670;2022-08-21T18:15:25;0.90;;;0.90;;
67051;SDS011;53957;47.222;18.670;2022-08-21T18:18:28;2.05;;;0.70;;
67051;SDS011;53957;47.222;18.670;2022-08-21T18:21:38;0.77;;;0.77;;
67051;SDS011;53957;47.222;18.670;2022-08-21T18:24:41;0.80;;;0.80;;
67051;SDS011;53957;47.222;18.670;2022-08-21T18:27:45;0.80;;;0.80;;
67051;SDS011;53957;47.222;18.670;2022-08-21T18:30:50;0.80;;;0.80;;
67051;SDS011;53957;47.222;18.670;2022-08-21T18:37:49;0.70;;;0.70;;
67051;SDS011;53957;47.222;18.670;2022-08-21T18:41:11;0.80;;;0.80;;
67051;SDS011;53957;47.222;18.670;2022-08-21T18:44:35;0.82;;;0.82;;
67051;SDS011;53957;47.222;18.670;2022-08-21T18:47:58;0.70;;;0.70;;
67051;SDS011;53957;47.222;18.670;2022-08-21T18:51:05;0.90;;;0.90;;
67051;SDS011;53957;47.222;18.670;2022-08-21T18:54:08;1.52;;;1.00;;
67051;SDS011;53957;47.222;18.670;2022-08-21T18:57:14;0.80;;;0.80;;
67051;SDS011;53957;47.222;18.670;2022-08-21T19:00:18;1.00;;;0.90;;
67051;SDS011;53957;47.222;18.670;2022-08-21T19:03:26;0.80;;;0.80;;
67051;SDS011;53957;47.222;18.670;2022-08-21T19:06:28;1.50;;;0.80;;
67051;SDS011;53957;47.222;18.670;2022-08-21T19:09:32;0.98;;;0.98;;
67051;SDS011;53957;47.222;18.670;2022-08-21T19:12:35;3.58;;;0.93;;
67051;SDS011;53957;47.222;18.670;2022-08-21T19:15:59;0.77;;;0.77;;
67051;SDS011;53957;47.222;18.670;2022-08-21T19:19:05;2.80;;;1.05;;
67051;SDS011;53957;47.222;18.670;2022-08-21T19:22:09;0.90;;;0.90;;
67051;SDS011;53957;47.222;18.670;2022-08-21T19:25:12;2.90;;;0.90;;
67051;SDS011;53957;47.222;18.670;2022-08-21T19:28:20;0.98;;;0.90;;
67051;SDS011;53957;47.222;18.670;2022-08-21T19:31:29;0.90;;;0.90;;
67051;SDS011;53957;47.222;18.670;2022-08-21T19:34:36;1.80;;;1.00;;
67051;SDS011;53957;47.222;18.670;2022-08-21T19:37:40;3.40;;;1.00;;
67051;SDS011;53957;47.222;18.670;2022-08-21T19:40:44;0.77;;;0.77;;
67051;SDS011;53957;47.222;18.670;2022-08-21T19:43:52;0.93;;;0.90;;
67051;SDS011;53957;47.222;18.670;2022-08-21T19:46:58;0.80;;;0.80;;
67051;SDS011;53957;47.222;18.670;2022-08-21T19:50:06;0.95;;;0.93;;
67051;SDS011;53957;47.222;18.670;2022-08-21T19:53:19;0.75;;;0.75;;
67051;SDS011;53957;47.222;18.670;2022-08-21T19:56:23;0.85;;;0.85;;
67051;SDS011;53957;47.222;18.670;2022-08-21T19:59:29;0.80;;;0.80;;
67051;SDS011;53957;47.222;18.670;2022-08-21T20:02:32;2.83;;;1.00;;
67051;SDS011;53957;47.222;18.670;2022-08-21T20:05:35;0.93;;;0.93;;